Terminal Aerodrome Forecast
Issued by NWS Wilmington, OH

Current Version | Previous Version | Graphics & Text | Print | Product List | Glossary On
Versions: 1 2 3 4 5 6 7 8 9 10 11 12 13 14 15 16
000
FTUS41 KILN 210841 AAA
TAFCMH
TAF AMD
KCMH 210841Z 2109/2206 36005KT 1SM BR OVC004
      TEMPO 2109/2112 1/4SM FG OVC002
     FM211400 36006KT 4SM BR OVC012
     FM211600 36006KT P6SM BKN022
     FM211800 34006KT P6SM BKN200
     FM220200 33010G16KT P6SM BKN100=

USA.gov is the U.S. government's official web portal to all federal, state and local government web resources and services.